createdAt,value
2019-01-21T00:00:48.071Z,1002.03
2019-01-21T00:01:58.434Z,1002.05
2019-01-21T00:03:14.257Z,1002.02
2019-01-21T00:04:25.094Z,1002.05
2019-01-21T00:05:34.709Z,1002.02
2019-01-21T00:06:44.571Z,1002
2019-01-21T00:07:54.633Z,1002.02
2019-01-21T00:09:06.038Z,1001.98
2019-01-21T00:10:15.872Z,1002
2019-01-21T00:11:25.687Z,1001.99
2019-01-21T00:12:35.734Z,1002.04
2019-01-21T00:13:45.810Z,1002.02
2019-01-21T00:14:55.891Z,1002.04
2019-01-21T00:16:07.306Z,1002.02
2019-01-21T00:17:22.222Z,1002.07
2019-01-21T00:18:32.671Z,1002.02
2019-01-21T00:19:42.759Z,1002.03
2019-01-21T00:20:52.844Z,1002.06
2019-01-21T00:22:03.200Z,1002.05
2019-01-21T00:23:13.017Z,1002.02
2019-01-21T00:24:23.084Z,1002.04
2019-01-21T00:25:33.159Z,1002.05
2019-01-21T00:26:43.219Z,1002.01
2019-01-21T00:27:53.327Z,1002.05
2019-01-21T00:29:05.873Z,1002.06
2019-01-21T00:30:16.030Z,1002.07
2019-01-21T00:31:25.894Z,1002.07
2019-01-21T00:32:35.982Z,1002.1
2019-01-21T00:33:46.034Z,1002.1
2019-01-21T00:34:56.102Z,1002.13
2019-01-21T00:36:06.198Z,1002.12
2019-01-21T00:37:16.266Z,1002.13
2019-01-21T00:38:26.129Z,1002.18
2019-01-21T00:39:37.203Z,1002.18
2019-01-21T00:40:47.436Z,1002.19
2019-01-21T00:41:57.551Z,1002.26
2019-01-21T00:43:07.360Z,1002.28
2019-01-21T00:44:17.677Z,1002.28
2019-01-21T00:45:27.761Z,1002.3
2019-01-21T00:46:38.303Z,1002.27
2019-01-21T00:47:48.149Z,1002.33
2019-01-21T00:48:58.451Z,1002.34
2019-01-21T00:50:08.514Z,1002.38
2019-01-21T00:51:19.628Z,1002.37
2019-01-21T00:52:29.931Z,1002.4
2019-01-21T00:53:39.747Z,1002.35
2019-01-21T00:54:51.044Z,1002.38
2019-01-21T00:56:01.810Z,1002.4
2019-01-21T00:57:11.902Z,1002.41
2019-01-21T00:58:21.451Z,1002.48
2019-01-21T00:59:31.254Z,1002.52
2019-01-21T01:00:41.062Z,1002.54
2019-01-21T01:01:51.212Z,1002.52
2019-01-21T01:03:01.332Z,1002.55
2019-01-21T01:04:11.390Z,1002.56
2019-01-21T01:05:21.746Z,1002.56
2019-01-21T01:06:31.863Z,1002.52
2019-01-21T01:09:06.169Z,1002.57
2019-01-21T01:10:16.232Z,1002.57
2019-01-21T01:11:26.286Z,1002.55
2019-01-21T01:12:36.337Z,1002.55
2019-01-21T01:13:46.438Z,1002.56
2019-01-21T01:14:56.501Z,1002.56
2019-01-21T01:16:06.308Z,1002.58
2019-01-21T01:17:16.107Z,1002.61
2019-01-21T01:18:25.908Z,1002.58
2019-01-21T01:19:35.548Z,1002.64
2019-01-21T01:20:45.344Z,1002.56
2019-01-21T01:21:55.430Z,1002.6
2019-01-21T01:23:05.531Z,1002.68
2019-01-21T01:24:15.335Z,1002.66
2019-01-21T01:25:25.152Z,1002.64
2019-01-21T01:26:35.268Z,1002.65
2019-01-21T01:27:45.571Z,1002.63
2019-01-21T01:28:55.681Z,1002.64
2019-01-21T01:30:08.175Z,1002.62
2019-01-21T01:31:18.304Z,1002.63
2019-01-21T01:32:28.114Z,1002.65
2019-01-21T01:33:38.171Z,1002.65
2019-01-21T01:34:48.231Z,1002.65
2019-01-21T01:35:58.275Z,1002.63
2019-01-21T01:37:08.824Z,1002.61
2019-01-21T01:38:18.888Z,1002.62
2019-01-21T01:39:28.724Z,1002.62
2019-01-21T01:40:38.789Z,1002.61
2019-01-21T01:41:48.849Z,1002.63
2019-01-21T01:42:58.994Z,1002.64
2019-01-21T01:44:09.467Z,1002.6
2019-01-21T01:45:19.831Z,1002.62
2019-01-21T01:46:30.755Z,1002.62
2019-01-21T01:47:44.766Z,1002.58
2019-01-21T01:48:54.924Z,1002.59
2019-01-21T01:50:05.880Z,1002.54
2019-01-21T01:51:15.682Z,1002.54
2019-01-21T01:52:25.754Z,1002.57
2019-01-21T01:53:35.831Z,1002.58
2019-01-21T01:54:45.980Z,1002.58
2019-01-21T01:55:56.074Z,1002.56
2019-01-21T01:57:06.695Z,1002.6
2019-01-21T01:58:16.792Z,1002.55
2019-01-21T01:59:26.891Z,1002.56
2019-01-21T02:00:37.011Z,1002.56
2019-01-21T02:01:46.842Z,1002.53
2019-01-21T02:02:56.916Z,1002.54
2019-01-21T02:04:07.001Z,1002.54
2019-01-21T02:05:17.218Z,1002.55
2019-01-21T02:06:27.363Z,1002.57
2019-01-21T02:07:37.435Z,1002.53
2019-01-21T02:08:47.569Z,1002.56
2019-01-21T02:09:57.390Z,1002.56
2019-01-21T02:11:07.590Z,1002.58
2019-01-21T02:12:17.702Z,1002.59
2019-01-21T02:13:27.519Z,1002.58
2019-01-21T02:14:37.594Z,1002.57
2019-01-21T02:15:48.502Z,1002.58
2019-01-21T02:16:59.315Z,1002.57
2019-01-21T02:18:10.002Z,1002.56
2019-01-21T02:19:20.535Z,1002.6
2019-01-21T02:20:31.181Z,1002.59
2019-01-21T02:21:41.486Z,1002.56
2019-01-21T02:22:51.576Z,1002.55
2019-01-21T02:24:01.135Z,1002.58
2019-01-21T02:25:11.221Z,1002.57
2019-01-21T02:26:21.069Z,1002.57
2019-01-21T02:27:31.141Z,1002.56
2019-01-21T02:28:40.959Z,1002.55
2019-01-21T02:29:51.106Z,1002.57
2019-01-21T02:31:02.815Z,1002.56
2019-01-21T02:32:12.882Z,1002.58
2019-01-21T02:33:22.704Z,1002.6
2019-01-21T02:34:32.782Z,1002.63
2019-01-21T02:35:42.888Z,1002.61
2019-01-21T02:36:52.955Z,1002.61
2019-01-21T02:38:04.117Z,1002.63
2019-01-21T02:39:14.201Z,1002.63
2019-01-21T02:40:24.583Z,1002.59
2019-01-21T02:41:34.210Z,1002.6
2019-01-21T02:42:44.299Z,1002.6
2019-01-21T02:43:54.399Z,1002.6
2019-01-21T02:45:04.491Z,1002.59
2019-01-21T02:46:14.326Z,1002.55
2019-01-21T02:47:24.227Z,1002.57
2019-01-21T02:48:34.343Z,1002.57
2019-01-21T02:49:44.425Z,1002.54
2019-01-21T02:50:54.419Z,1002.59
2019-01-21T02:52:05.064Z,1002.56
2019-01-21T02:53:15.650Z,1002.56
2019-01-21T02:54:26.271Z,1002.58
2019-01-21T02:55:36.976Z,1002.56
2019-01-21T02:56:47.245Z,1002.55
2019-01-21T02:57:57.340Z,1002.56
2019-01-21T02:59:07.434Z,1002.6
2019-01-21T03:00:17.656Z,1002.54
2019-01-21T03:01:27.884Z,1002.58
2019-01-21T03:02:37.701Z,1002.56
2019-01-21T03:34:50.282Z,1002.59
2019-01-21T03:36:01.321Z,1002.55
2019-01-21T03:37:11.675Z,1002.55
2019-01-21T03:38:21.261Z,1002.48
2019-01-21T03:39:31.094Z,1002.54
2019-01-21T03:40:40.946Z,1002.55
2019-01-21T03:41:51.067Z,1002.54
2019-01-21T03:43:01.524Z,1002.56
2019-01-21T03:44:12.515Z,1002.55
2019-01-21T03:45:22.999Z,1002.52
2019-01-21T03:46:33.694Z,1002.53
2019-01-21T03:47:44.331Z,1002.54
2019-01-21T03:48:54.436Z,1002.49
2019-01-21T03:50:04.781Z,1002.52
2019-01-21T03:51:14.970Z,1002.53
2019-01-21T03:52:24.835Z,1002.53
2019-01-21T03:53:34.675Z,1002.48
2019-01-21T03:54:44.786Z,1002.51
2019-01-21T03:55:55.353Z,1002.53
2019-01-21T03:57:05.470Z,1002.5
2019-01-21T03:58:15.857Z,1002.51
2019-01-21T03:59:26.153Z,1002.53
2019-01-21T04:00:36.273Z,1002.51
2019-01-21T04:01:46.127Z,1002.57
2019-01-21T04:02:56.429Z,1002.53
2019-01-21T04:04:06.360Z,1002.52
2019-01-21T04:05:16.447Z,1002.57
2019-01-21T04:06:26.541Z,1002.54
2019-01-21T04:07:36.380Z,1002.56
2019-01-21T04:08:46.491Z,1002.56
2019-01-21T04:09:56.591Z,1002.58
2019-01-21T04:11:09.238Z,1002.56
2019-01-21T04:12:19.338Z,1002.57
2019-01-21T04:13:29.413Z,1002.58
2019-01-21T04:14:39.491Z,1002.55
2019-01-21T04:15:49.379Z,1002.58
2019-01-21T04:16:59.498Z,1002.58
2019-01-21T04:18:11.346Z,1002.59
2019-01-21T04:19:27.441Z,1002.61
2019-01-21T04:20:38.149Z,1002.62
2019-01-21T04:21:48.602Z,1002.65
2019-01-21T04:22:58.699Z,1002.63
2019-01-21T04:24:08.584Z,1002.7
2019-01-21T04:25:18.495Z,1002.72
2019-01-21T04:26:28.590Z,1002.72
2019-01-21T04:27:38.680Z,1002.69
2019-01-21T04:28:48.506Z,1002.71
2019-01-21T04:29:58.648Z,1002.72
2019-01-21T04:31:09.011Z,1002.72
2019-01-21T04:32:19.106Z,1002.7
2019-01-21T04:33:28.930Z,1002.76
2019-01-21T04:34:39.027Z,1002.74
2019-01-21T04:35:49.113Z,1002.78
2019-01-21T04:36:59.188Z,1002.79
2019-01-21T04:38:09.274Z,1002.79
2019-01-21T04:39:19.413Z,1002.78
2019-01-21T04:40:29.543Z,1002.75
2019-01-21T04:41:39.097Z,1002.76
2019-01-21T04:42:48.918Z,1002.78
2019-01-21T04:43:59.029Z,1002.79
2019-01-21T04:45:09.151Z,1002.79
2019-01-21T04:46:19.325Z,1002.78
2019-01-21T04:47:29.411Z,1002.76
2019-01-21T04:48:39.492Z,1002.8
2019-01-21T04:49:49.597Z,1002.79
2019-01-21T04:50:59.781Z,1002.82
2019-01-21T04:52:09.940Z,1002.81
2019-01-21T04:53:20.541Z,1002.8
2019-01-21T04:54:30.973Z,1002.8
2019-01-21T04:55:41.522Z,1002.83
2019-01-21T04:56:52.350Z,1002.83
2019-01-21T04:58:02.990Z,1002.85
2019-01-21T04:59:13.101Z,1002.85
2019-01-21T05:00:23.151Z,1002.86
2019-01-21T05:01:33.277Z,1002.87
2019-01-21T05:02:43.101Z,1002.84
2019-01-21T05:03:53.182Z,1002.84
2019-01-21T05:05:03.277Z,1002.85
2019-01-21T05:06:13.423Z,1002.87
2019-01-21T05:07:23.500Z,1002.89
2019-01-21T05:08:33.378Z,1002.94
2019-01-21T05:09:43.477Z,1002.88
2019-01-21T05:10:53.554Z,1002.88
2019-01-21T05:12:03.638Z,1002.92
2019-01-21T05:13:13.769Z,1002.94
2019-01-21T05:14:23.837Z,1002.94
2019-01-21T05:15:33.422Z,1002.95
2019-01-21T05:16:43.510Z,1002.92
2019-01-21T05:17:53.584Z,1002.92
2019-01-21T05:19:03.654Z,1002.92
2019-01-21T05:20:13.506Z,1002.93
2019-01-21T05:21:23.594Z,1002.92
2019-01-21T05:22:33.416Z,1002.96
2019-01-21T05:23:43.501Z,1002.96
2019-01-21T05:24:53.582Z,1002.95
2019-01-21T05:26:05.771Z,1002.97
2019-01-21T05:27:15.878Z,1002.96
2019-01-21T05:28:26.061Z,1002.96
2019-01-21T05:29:36.401Z,1002.96
2019-01-21T05:30:46.872Z,1003.01
2019-01-21T05:31:57.038Z,1002.99
2019-01-21T05:33:09.006Z,1002.96
2019-01-21T05:34:19.789Z,1002.96
2019-01-21T05:35:30.499Z,1002.96
2019-01-21T05:36:40.955Z,1003.02
2019-01-21T05:37:51.185Z,1003.01
2019-01-21T05:39:03.632Z,1003.02
2019-01-21T05:40:13.715Z,1003.03
2019-01-21T05:41:23.821Z,1003
2019-01-21T05:42:34.126Z,1003.05
2019-01-21T05:43:43.943Z,1003.06
2019-01-21T05:44:53.756Z,1003.03
2019-01-21T05:46:03.829Z,1003.06
2019-01-21T05:47:13.656Z,1003.09
2019-01-21T05:48:23.759Z,1003.1
2019-01-21T05:49:33.832Z,1003.11
2019-01-21T05:50:43.951Z,1003.11
2019-01-21T05:51:53.545Z,1003.1
2019-01-21T05:53:03.639Z,1003.12
2019-01-21T05:54:13.698Z,1003.11
2019-01-21T05:55:23.767Z,1003.16
2019-01-21T05:56:33.574Z,1003.15
2019-01-21T05:57:43.135Z,1003.16
2019-01-21T05:58:53.206Z,1003.19
2019-01-21T06:00:05.871Z,1003.14
2019-01-21T06:01:16.524Z,1003.23
2019-01-21T06:02:26.340Z,1003.19
2019-01-21T06:03:36.396Z,1003.2
2019-01-21T06:04:46.448Z,1003.23
2019-01-21T06:05:56.718Z,1003.25
2019-01-21T06:07:06.570Z,1003.26
2019-01-21T06:08:16.397Z,1003.3
2019-01-21T06:09:26.439Z,1003.23
2019-01-21T06:10:36.244Z,1003.25
2019-01-21T06:11:46.312Z,1003.29
2019-01-21T06:12:56.377Z,1003.31
2019-01-21T06:14:06.446Z,1003.3
2019-01-21T06:15:16.520Z,1003.33
2019-01-21T06:16:26.592Z,1003.35
2019-01-21T06:17:36.436Z,1003.35
2019-01-21T06:18:46.546Z,1003.34
2019-01-21T06:20:04.895Z,1003.38
2019-01-21T06:21:14.713Z,1003.38
2019-01-21T06:22:24.782Z,1003.41
2019-01-21T06:23:34.848Z,1003.39
2019-01-21T06:24:45.096Z,1003.48
2019-01-21T06:25:56.008Z,1003.47
2019-01-21T06:27:05.817Z,1003.44
2019-01-21T06:28:15.690Z,1003.47
2019-01-21T06:29:25.815Z,1003.43
2019-01-21T06:30:35.887Z,1003.51
2019-01-21T06:31:45.670Z,1003.47
2019-01-21T06:32:55.509Z,1003.47
2019-01-21T06:34:07.294Z,1003.49
2019-01-21T06:35:17.646Z,1003.49
2019-01-21T06:36:27.735Z,1003.48
2019-01-21T06:37:37.525Z,1003.51
2019-01-21T06:38:47.862Z,1003.53
2019-01-21T06:39:57.900Z,1003.54
2019-01-21T06:41:07.703Z,1003.54
2019-01-21T06:42:17.766Z,1003.54
2019-01-21T06:43:27.820Z,1003.55
2019-01-21T06:44:37.864Z,1003.49
2019-01-21T06:45:47.674Z,1003.51
2019-01-21T06:46:57.748Z,1003.54
2019-01-21T06:48:07.799Z,1003.5
2019-01-21T06:49:17.850Z,1003.52
2019-01-21T06:50:28.145Z,1003.52
2019-01-21T06:51:38.036Z,1003.53
2019-01-21T06:52:47.826Z,1003.54
2019-01-21T06:53:57.864Z,1003.52
2019-01-21T06:55:09.564Z,1003.58
2019-01-21T06:56:19.630Z,1003.58
2019-01-21T06:57:30.168Z,1003.59
2019-01-21T06:58:39.966Z,1003.56
2019-01-21T06:59:50.018Z,1003.61
2019-01-21T07:01:00.058Z,1003.6
2019-01-21T07:02:09.841Z,1003.58
2019-01-21T07:03:19.655Z,1003.6
2019-01-21T07:04:30.021Z,1003.64
2019-01-21T07:05:39.924Z,1003.62
2019-01-21T07:06:50.004Z,1003.67
2019-01-21T07:08:00.154Z,1003.58
2019-01-21T07:09:10.336Z,1003.61
2019-01-21T07:10:20.359Z,1003.62
2019-01-21T07:11:30.430Z,1003.63
2019-01-21T07:12:40.774Z,1003.67
2019-01-21T07:13:51.393Z,1003.68
2019-01-21T07:15:01.684Z,1003.68
2019-01-21T07:16:11.738Z,1003.68
2019-01-21T07:17:21.833Z,1003.68
2019-01-21T07:18:31.889Z,1003.65
2019-01-21T07:19:41.935Z,1003.69
2019-01-21T07:20:54.020Z,1003.7
2019-01-21T07:22:04.067Z,1003.72
2019-01-21T07:23:14.167Z,1003.73
2019-01-21T07:24:24.212Z,1003.77
2019-01-21T07:25:34.001Z,1003.77
2019-01-21T07:26:43.812Z,1003.78
2019-01-21T07:27:53.639Z,1003.8
2019-01-21T07:29:03.165Z,1003.79
2019-01-21T07:30:13.237Z,1003.83
2019-01-21T07:31:23.039Z,1003.87
2019-01-21T07:32:32.826Z,1003.82
2019-01-21T07:33:42.664Z,1003.89
2019-01-21T07:34:52.781Z,1003.85
2019-01-21T07:36:02.831Z,1003.9
2019-01-21T07:37:12.915Z,1003.86
2019-01-21T07:38:22.724Z,1003.91
2019-01-21T07:39:33.843Z,1003.9
2019-01-21T07:40:43.799Z,1003.91
2019-01-21T07:41:53.609Z,1003.93
2019-01-21T07:43:03.407Z,1003.94
2019-01-21T07:44:13.223Z,1003.97
2019-01-21T07:45:23.031Z,1003.98
2019-01-21T07:46:33.094Z,1003.97
2019-01-21T07:47:42.889Z,1003.98
2019-01-21T07:48:52.430Z,1004.01
2019-01-21T07:50:02.908Z,1004
2019-01-21T07:52:37.709Z,1003.99
2019-01-21T07:53:47.566Z,1004.04
2019-01-21T07:54:57.645Z,1004.07
2019-01-21T07:56:07.768Z,1004.05
2019-01-21T07:57:17.930Z,1004.1
2019-01-21T07:58:27.719Z,1004.08
2019-01-21T07:59:37.762Z,1004.08
2019-01-21T08:00:47.570Z,1004.04
2019-01-21T08:01:57.599Z,1004.01
2019-01-21T08:03:07.443Z,1004.06
2019-01-21T08:04:17.247Z,1004.04
2019-01-21T08:05:27.052Z,1004.03
2019-01-21T08:06:37.093Z,1004.05
2019-01-21T08:07:48.319Z,1004.06
2019-01-21T08:08:58.373Z,1004.08
2019-01-21T08:10:10.432Z,1004.02
2019-01-21T08:11:20.476Z,1004.06
2019-01-21T08:12:30.522Z,1004.05
2019-01-21T08:13:40.587Z,1004.07
2019-01-21T08:14:50.637Z,1004.1
2019-01-21T08:16:01.032Z,1004.08
2019-01-21T08:17:11.133Z,1004.05
2019-01-21T08:18:21.252Z,1004.1
2019-01-21T08:19:31.047Z,1004.07
2019-01-21T08:20:40.849Z,1004.09
2019-01-21T08:21:50.914Z,1004.12
2019-01-21T08:23:01.996Z,1004.07
2019-01-21T08:24:12.351Z,1004.1
2019-01-21T08:25:22.170Z,1004.1
2019-01-21T08:26:32.300Z,1004.07
2019-01-21T08:27:42.358Z,1004.09
2019-01-21T08:28:51.920Z,1004.09
2019-01-21T08:30:03.681Z,1004.13
2019-01-21T08:31:13.215Z,1004.14
2019-01-21T08:32:23.257Z,1004.05
2019-01-21T08:33:33.327Z,1004.1
2019-01-21T08:34:43.411Z,1004.09
2019-01-21T08:35:53.466Z,1004.07
2019-01-21T08:37:05.079Z,1004.07
2019-01-21T08:38:15.127Z,1004.07
2019-01-21T08:39:24.937Z,1004.04
2019-01-21T08:40:35.101Z,1004.09
2019-01-21T08:41:45.148Z,1004.11
2019-01-21T08:42:55.310Z,1004.13
2019-01-21T08:44:05.393Z,1004.11
2019-01-21T08:45:15.496Z,1004.17
2019-01-21T08:46:25.764Z,1004.19
2019-01-21T08:47:35.815Z,1004.21
2019-01-21T08:48:45.613Z,1004.15
2019-01-21T08:49:55.768Z,1004.21
2019-01-21T08:51:07.625Z,1004.17
2019-01-21T08:52:17.689Z,1004.19
2019-01-21T08:53:27.741Z,1004.21
2019-01-21T08:54:37.293Z,1004.19
2019-01-21T08:55:47.095Z,1004.18
2019-01-21T08:56:57.160Z,1004.21
2019-01-21T08:58:06.956Z,1004.28
2019-01-21T08:59:16.764Z,1004.26
2019-01-21T09:00:26.837Z,1004.26
2019-01-21T09:01:36.364Z,1004.25
2019-01-21T09:02:46.166Z,1004.28
2019-01-21T09:03:55.974Z,1004.28
2019-01-21T09:05:06.354Z,1004.26
2019-01-21T09:06:16.416Z,1004.25
2019-01-21T09:07:26.465Z,1004.22
2019-01-21T09:08:37.635Z,1004.25
2019-01-21T09:09:47.608Z,1004.2
2019-01-21T09:10:57.972Z,1004.22
2019-01-21T09:12:08.045Z,1004.17
2019-01-21T09:13:18.136Z,1004.24
2019-01-21T09:14:28.294Z,1004.21
2019-01-21T09:15:38.346Z,1004.22
2019-01-21T09:16:48.179Z,1004.21
2019-01-21T09:17:58.219Z,1004.24
2019-01-21T09:19:08.274Z,1004.24
2019-01-21T09:20:18.316Z,1004.25
2019-01-21T09:21:28.378Z,1004.31
2019-01-21T09:22:38.630Z,1004.29
2019-01-21T09:23:48.695Z,1004.31
2019-01-21T09:24:58.738Z,1004.32
2019-01-21T09:26:09.061Z,1004.29
2019-01-21T09:27:18.833Z,1004.28
2019-01-21T09:28:28.937Z,1004.31
2019-01-21T09:29:38.742Z,1004.33
2019-01-21T09:30:48.778Z,1004.29
2019-01-21T09:31:58.874Z,1004.27
2019-01-21T09:33:10.603Z,1004.27
2019-01-21T09:34:20.716Z,1004.29
2019-01-21T09:35:30.772Z,1004.25
2019-01-21T09:36:40.824Z,1004.28
2019-01-21T09:37:50.906Z,1004.21
2019-01-21T09:39:03.659Z,1004.22
2019-01-21T09:40:13.486Z,1004.2
2019-01-21T09:41:23.530Z,1004.18
2019-01-21T09:42:33.645Z,1004.16
2019-01-21T09:43:43.446Z,1004.14
2019-01-21T09:44:53.500Z,1004.12
2019-01-21T09:46:04.950Z,1004.15
2019-01-21T09:47:14.772Z,1004.15
2019-01-21T09:48:24.922Z,1004.18
2019-01-21T09:49:34.980Z,1004.13
2019-01-21T09:50:51.082Z,1004.15
2019-01-21T09:52:01.136Z,1004.14
2019-01-21T09:53:11.550Z,1004.13
2019-01-21T09:54:21.632Z,1004.14
2019-01-21T09:55:31.738Z,1004.05
2019-01-21T09:56:41.810Z,1004.13
2019-01-21T09:57:51.625Z,1004.07
2019-01-21T09:59:03.832Z,1004.04
2019-01-21T10:00:14.143Z,1004.03
2019-01-21T10:01:24.651Z,1004.07
2019-01-21T10:02:34.449Z,1004.04
2019-01-21T10:03:45.170Z,1004.01
2019-01-21T10:04:55.217Z,1004.01
2019-01-21T10:06:05.531Z,1004.04
2019-01-21T10:07:15.584Z,1004.01
2019-01-21T10:08:25.661Z,1003.98
2019-01-21T10:09:35.760Z,1003.98
2019-01-21T10:10:45.299Z,1003.99
2019-01-21T10:11:55.117Z,1003.99
2019-01-21T10:13:05.184Z,1004.01
2019-01-21T10:14:15.258Z,1004.01
2019-01-21T10:15:25.384Z,1004.02
2019-01-21T10:16:35.510Z,1003.98
2019-01-21T10:19:10.334Z,1003.95
2019-01-21T10:20:20.389Z,1003.96
2019-01-21T10:21:30.455Z,1003.92
2019-01-21T10:22:40.514Z,1003.94
2019-01-21T10:23:50.318Z,1003.93
2019-01-21T10:25:00.389Z,1003.87
2019-01-21T10:26:10.462Z,1003.84
2019-01-21T10:27:20.521Z,1003.87
2019-01-21T10:28:30.674Z,1003.82
2019-01-21T10:29:40.501Z,1003.81
2019-01-21T10:30:50.671Z,1003.78
2019-01-21T10:32:00.839Z,1003.79
2019-01-21T10:33:10.924Z,1003.79
2019-01-21T10:34:21.012Z,1003.79
2019-01-21T10:35:31.480Z,1003.76
2019-01-21T10:36:41.547Z,1003.74
2019-01-21T10:37:51.357Z,1003.75
2019-01-21T10:39:01.373Z,1003.72
2019-01-21T10:40:10.655Z,1003.74
2019-01-21T10:41:20.210Z,1003.72
2019-01-21T10:42:30.285Z,1003.7
2019-01-21T10:43:40.527Z,1003.72
2019-01-21T10:44:50.592Z,1003.72
2019-01-21T10:46:02.665Z,1003.72
2019-01-21T10:47:12.729Z,1003.69
2019-01-21T10:48:22.823Z,1003.63
2019-01-21T10:49:32.955Z,1003.62
2019-01-21T10:50:43.104Z,1003.62
2019-01-21T10:51:53.165Z,1003.6
2019-01-21T10:53:03.938Z,1003.59
2019-01-21T10:54:14.012Z,1003.59
2019-01-21T10:55:24.067Z,1003.54
2019-01-21T10:56:34.181Z,1003.52
2019-01-21T10:57:44.251Z,1003.53
2019-01-21T10:58:54.298Z,1003.55
2019-01-21T11:00:04.422Z,1003.52
2019-01-21T11:01:15.002Z,1003.57
2019-01-21T11:02:25.365Z,1003.57
2019-01-21T11:03:35.190Z,1003.57
2019-01-21T11:04:45.005Z,1003.58
2019-01-21T11:05:55.170Z,1003.54
2019-01-21T11:07:06.327Z,1003.52
2019-01-21T11:08:16.621Z,1003.54
2019-01-21T11:09:26.960Z,1003.55
2019-01-21T11:10:37.234Z,1003.55
2019-01-21T11:11:53.718Z,1003.56
2019-01-21T11:13:03.965Z,1003.53
2019-01-21T11:14:14.040Z,1003.54
2019-01-21T11:15:24.214Z,1003.5
2019-01-21T11:16:34.086Z,1003.52
2019-01-21T11:17:43.878Z,1003.51
2019-01-21T11:18:54.132Z,1003.52
2019-01-21T11:20:04.447Z,1003.46
2019-01-21T11:21:14.533Z,1003.49
2019-01-21T11:22:24.089Z,1003.48
2019-01-21T11:23:33.890Z,1003.41
2019-01-21T11:24:43.955Z,1003.43
2019-01-21T11:25:54.019Z,1003.37
2019-01-21T11:27:03.813Z,1003.43
2019-01-21T11:28:13.942Z,1003.41
2019-01-21T11:29:24.011Z,1003.43
2019-01-21T11:30:34.134Z,1003.4
2019-01-21T11:31:44.203Z,1003.38
2019-01-21T11:32:54.345Z,1003.39
2019-01-21T11:34:04.578Z,1003.39
2019-01-21T11:35:14.644Z,1003.35
2019-01-21T11:36:24.446Z,1003.32
2019-01-21T11:37:34.490Z,1003.31
2019-01-21T11:38:44.676Z,1003.31
2019-01-21T11:39:54.778Z,1003.31
2019-01-21T11:41:04.577Z,1003.3
2019-01-21T11:42:14.450Z,1003.29
2019-01-21T11:43:23.730Z,1003.32
2019-01-21T11:44:34.397Z,1003.27
2019-01-21T11:45:44.782Z,1003.23
2019-01-21T11:46:54.923Z,1003.23
2019-01-21T11:48:06.181Z,1003.19
2019-01-21T11:49:15.965Z,1003.2
2019-01-21T11:50:26.029Z,1003.16
2019-01-21T11:51:36.858Z,1003.15
2019-01-21T11:52:46.704Z,1003.17
2019-01-21T11:53:56.291Z,1003.17
2019-01-21T11:55:06.390Z,1003.19
2019-01-21T11:56:16.217Z,1003.21
2019-01-21T11:57:26.001Z,1003.19
2019-01-21T11:58:36.057Z,1003.18
2019-01-21T11:59:46.479Z,1003.14
2019-01-21T12:00:56.523Z,1003.17
2019-01-21T12:02:07.330Z,1003.15
2019-01-21T12:03:23.259Z,1003.17
2019-01-21T12:04:33.554Z,1003.1
2019-01-21T12:05:43.627Z,1003.09
2019-01-21T12:06:53.685Z,1003.06
2019-01-21T12:08:03.798Z,1003.07
2019-01-21T12:09:13.968Z,1003.08
2019-01-21T12:10:24.322Z,1003.04
2019-01-21T12:11:34.403Z,1003.02
2019-01-21T12:12:44.476Z,1003.03
2019-01-21T12:13:54.538Z,1003.03
2019-01-21T12:15:04.715Z,1002.98
2019-01-21T12:16:14.811Z,1002.99
2019-01-21T12:17:24.879Z,1003
2019-01-21T12:18:34.964Z,1002.95
2019-01-21T12:19:44.962Z,1002.96
2019-01-21T12:20:55.018Z,1002.96
2019-01-21T12:22:04.858Z,1002.94
2019-01-21T12:23:14.959Z,1002.92
2019-01-21T12:24:25.045Z,1002.88
2019-01-21T12:25:35.094Z,1002.91
2019-01-21T12:26:44.897Z,1002.89
2019-01-21T12:27:54.454Z,1002.84
2019-01-21T12:29:05.768Z,1002.85
2019-01-21T12:30:15.881Z,1002.83
2019-01-21T12:31:25.966Z,1002.82
2019-01-21T12:32:35.785Z,1002.78
2019-01-21T12:33:45.847Z,1002.83
2019-01-21T12:34:55.905Z,1002.79
2019-01-21T12:36:05.986Z,1002.8
2019-01-21T12:37:15.894Z,1002.74
2019-01-21T12:38:25.586Z,1002.76
2019-01-21T12:39:35.693Z,1002.75
2019-01-21T12:40:45.796Z,1002.71
2019-01-21T12:41:55.875Z,1002.71
2019-01-21T12:43:05.935Z,1002.69
2019-01-21T12:44:15.754Z,1002.68
2019-01-21T12:45:25.805Z,1002.68
2019-01-21T12:46:35.866Z,1002.68
2019-01-21T12:47:47.234Z,1002.69
2019-01-21T12:48:56.536Z,1002.66
2019-01-21T12:50:06.671Z,1002.64
2019-01-21T12:51:17.000Z,1002.66
2019-01-21T12:52:27.075Z,1002.64
2019-01-21T12:53:37.175Z,1002.6
2019-01-21T12:54:46.735Z,1002.55
2019-01-21T12:55:57.223Z,1002.57
2019-01-21T12:57:07.265Z,1002.55
2019-01-21T12:58:17.114Z,1002.56
2019-01-21T12:59:27.202Z,1002.57
2019-01-21T13:00:37.487Z,1002.58
2019-01-21T13:01:47.571Z,1002.55
2019-01-21T13:02:57.747Z,1002.56
2019-01-21T13:04:07.817Z,1002.58
2019-01-21T13:05:17.891Z,1002.52
2019-01-21T13:06:27.961Z,1002.51
2019-01-21T13:07:38.043Z,1002.48
2019-01-21T13:08:48.139Z,1002.44
2019-01-21T13:09:58.221Z,1002.46
2019-01-21T13:11:08.057Z,1002.45
2019-01-21T13:12:18.112Z,1002.48
2019-01-21T13:13:28.225Z,1002.44
2019-01-21T13:14:38.295Z,1002.44
2019-01-21T13:15:48.386Z,1002.4
2019-01-21T13:16:58.466Z,1002.44
2019-01-21T13:18:08.547Z,1002.41
2019-01-21T13:19:18.719Z,1002.44
2019-01-21T13:20:30.633Z,1002.42
2019-01-21T13:21:40.903Z,1002.41
2019-01-21T13:22:51.510Z,1002.43
2019-01-21T13:24:01.739Z,1002.42
2019-01-21T13:25:12.049Z,1002.41
2019-01-21T13:26:22.142Z,1002.39
2019-01-21T13:27:32.266Z,1002.41
2019-01-21T13:28:42.371Z,1002.4
2019-01-21T13:29:52.220Z,1002.39
2019-01-21T13:31:03.803Z,1002.4
2019-01-21T13:32:13.916Z,1002.37
2019-01-21T13:33:23.969Z,1002.35
2019-01-21T13:34:33.794Z,1002.39
2019-01-21T13:35:43.869Z,1002.39
2019-01-21T13:36:54.212Z,1002.42
2019-01-21T13:38:04.320Z,1002.41
2019-01-21T13:39:14.378Z,1002.39
2019-01-21T13:40:24.273Z,1002.42
2019-01-21T13:41:34.350Z,1002.36
2019-01-21T13:42:44.413Z,1002.4
2019-01-21T13:43:54.480Z,1002.45
2019-01-21T13:45:04.524Z,1002.4
2019-01-21T13:46:14.668Z,1002.39
2019-01-21T13:47:24.751Z,1002.41
2019-01-21T13:48:34.339Z,1002.39
2019-01-21T13:49:44.466Z,1002.37
2019-01-21T13:50:55.817Z,1002.36
2019-01-21T13:52:05.981Z,1002.32
2019-01-21T13:53:15.570Z,1002.3
2019-01-21T13:54:25.666Z,1002.25
2019-01-21T13:55:35.565Z,1002.23
2019-01-21T13:56:45.621Z,1002.19
2019-01-21T13:57:55.728Z,1002.25
2019-01-21T13:59:05.815Z,1002.22
2019-01-21T14:00:15.901Z,1002.25
2019-01-21T14:01:25.960Z,1002.22
2019-01-21T14:02:36.055Z,1002.19
2019-01-21T14:03:46.177Z,1002.24
2019-01-21T14:04:56.512Z,1002.22
2019-01-21T14:06:06.567Z,1002.18
2019-01-21T14:07:16.658Z,1002.2
2019-01-21T14:08:26.805Z,1002.17
2019-01-21T14:09:36.981Z,1002.18
2019-01-21T14:10:48.079Z,1002.18
2019-01-21T14:11:58.161Z,1002.14
2019-01-21T14:13:09.278Z,1002.17
2019-01-21T14:14:19.127Z,1002.16
2019-01-21T14:15:29.340Z,1002.13
2019-01-21T14:16:39.501Z,1002.14
2019-01-21T14:17:49.594Z,1002.13
2019-01-21T14:18:59.688Z,1002.14
2019-01-21T14:20:10.024Z,1002.15
2019-01-21T14:21:24.566Z,1002.11
2019-01-21T14:22:35.200Z,1002.11
2019-01-21T14:23:45.283Z,1002.11
2019-01-21T14:24:55.339Z,1002.11
2019-01-21T14:26:05.427Z,1002.1
2019-01-21T14:27:16.027Z,1002.08
2019-01-21T14:28:26.114Z,1002.03
2019-01-21T14:29:36.189Z,1002.06
2019-01-21T14:30:46.274Z,1002.02
2019-01-21T14:31:56.390Z,1002.01
2019-01-21T14:33:08.228Z,1002.01
2019-01-21T14:34:18.294Z,1001.99
2019-01-21T14:35:28.352Z,1002
2019-01-21T14:36:38.628Z,1002.04
2019-01-21T14:37:49.080Z,1001.99
2019-01-21T14:38:58.942Z,1002.03
2019-01-21T14:40:09.046Z,1002.01
2019-01-21T14:41:19.339Z,1002.02
2019-01-21T14:42:29.590Z,1001.98
2019-01-21T14:43:39.458Z,1002
2019-01-21T14:44:49.306Z,1001.99
2019-01-21T14:45:59.360Z,1002.01
2019-01-21T14:47:10.790Z,1001.96
2019-01-21T14:48:20.952Z,1001.93